sensor_id;sensor_type;location;lat;lon;timestamp;P1;durP1;ratioP1;P2;durP2;ratioP2
19778;SDS011;10049;59.306;18.090;2022-12-29T00:00:18;81.82;;;4.32;;
19778;SDS011;10049;59.306;18.090;2022-12-29T00:02:46;142.25;;;5.55;;
19778;SDS011;10049;59.306;18.090;2022-12-29T00:05:13;218.23;;;9.57;;
19778;SDS011;10049;59.306;18.090;2022-12-29T00:07:41;213.80;;;8.77;;
19778;SDS011;10049;59.306;18.090;2022-12-29T00:10:08;258.67;;;11.93;;
19778;SDS011;10049;59.306;18.090;2022-12-29T00:12:36;95.03;;;6.40;;
19778;SDS011;10049;59.306;18.090;2022-12-29T00:15:22;121.80;;;7.17;;
19778;SDS011;10049;59.306;18.090;2022-12-29T00:18:05;129.88;;;8.25;;
19778;SDS011;10049;59.306;18.090;2022-12-29T00:20:33;175.50;;;8.10;;
19778;SDS011;10049;59.306;18.090;2022-12-29T00:23:19;302.80;;;11.70;;
19778;SDS011;10049;59.306;18.090;2022-12-29T00:26:04;163.35;;;9.05;;
19778;SDS011;10049;59.306;18.090;2022-12-29T00:28:52;205.27;;;9.13;;
19778;SDS011;10049;59.306;18.090;2022-12-29T00:31:39;166.13;;;6.80;;
19778;SDS011;10049;59.306;18.090;2022-12-29T00:34:24;129.67;;;5.87;;
19778;SDS011;10049;59.306;18.090;2022-12-29T00:37:09;186.00;;;9.27;;
19778;SDS011;10049;59.306;18.090;2022-12-29T00:39:36;130.33;;;6.20;;
19778;SDS011;10049;59.306;18.090;2022-12-29T00:42:21;218.97;;;11.57;;
19778;SDS011;10049;59.306;18.090;2022-12-29T00:45:15;84.97;;;4.17;;
19778;SDS011;10049;59.306;18.090;2022-12-29T00:47:44;134.37;;;7.73;;
19778;SDS011;10049;59.306;18.090;2022-12-29T00:50:12;121.60;;;5.20;;
19778;SDS011;10049;59.306;18.090;2022-12-29T00:52:38;164.35;;;7.60;;
19778;SDS011;10049;59.306;18.090;2022-12-29T00:55:06;107.87;;;5.33;;
19778;SDS011;10049;59.306;18.090;2022-12-29T00:57:34;144.43;;;6.43;;
19778;SDS011;10049;59.306;18.090;2022-12-29T01:00:01;131.57;;;5.73;;
19778;SDS011;10049;59.306;18.090;2022-12-29T01:02:29;183.70;;;8.13;;
19778;SDS011;10049;59.306;18.090;2022-12-29T01:04:58;133.63;;;6.00;;
19778;SDS011;10049;59.306;18.090;2022-12-29T01:07:25;99.87;;;4.60;;
19778;SDS011;10049;59.306;18.090;2022-12-29T01:09:53;13.48;;;1.15;;
19778;SDS011;10049;59.306;18.090;2022-12-29T01:12:35;232.07;;;11.52;;
19778;SDS011;10049;59.306;18.090;2022-12-29T01:15:10;208.32;;;7.65;;
19778;SDS011;10049;59.306;18.090;2022-12-29T01:17:39;146.00;;;6.37;;
19778;SDS011;10049;59.306;18.090;2022-12-29T01:20:09;71.23;;;3.80;;
19778;SDS011;10049;59.306;18.090;2022-12-29T01:22:37;130.83;;;6.13;;
19778;SDS011;10049;59.306;18.090;2022-12-29T01:25:05;94.13;;;5.07;;
19778;SDS011;10049;59.306;18.090;2022-12-29T01:27:34;202.83;;;7.93;;
19778;SDS011;10049;59.306;18.090;2022-12-29T01:30:03;50.73;;;2.80;;
19778;SDS011;10049;59.306;18.090;2022-12-29T01:32:30;119.63;;;5.30;;
19778;SDS011;10049;59.306;18.090;2022-12-29T01:34:58;150.68;;;6.15;;
19778;SDS011;10049;59.306;18.090;2022-12-29T01:37:27;116.67;;;5.40;;
19778;SDS011;10049;59.306;18.090;2022-12-29T01:39:55;106.20;;;4.50;;
19778;SDS011;10049;59.306;18.090;2022-12-29T01:42:23;120.47;;;4.90;;
19778;SDS011;10049;59.306;18.090;2022-12-29T01:44:53;224.00;;;9.80;;
19778;SDS011;10049;59.306;18.090;2022-12-29T01:47:28;98.07;;;4.07;;
19778;SDS011;10049;59.306;18.090;2022-12-29T01:49:58;163.03;;;7.10;;
19778;SDS011;10049;59.306;18.090;2022-12-29T01:52:26;62.00;;;2.77;;
19778;SDS011;10049;59.306;18.090;2022-12-29T01:54:58;118.07;;;5.97;;
19778;SDS011;10049;59.306;18.090;2022-12-29T01:57:27;66.50;;;3.38;;
19778;SDS011;10049;59.306;18.090;2022-12-29T01:59:58;21.40;;;1.67;;
19778;SDS011;10049;59.306;18.090;2022-12-29T02:02:28;100.63;;;4.67;;
19778;SDS011;10049;59.306;18.090;2022-12-29T02:04:56;31.52;;;2.15;;
19778;SDS011;10049;59.306;18.090;2022-12-29T02:07:26;110.40;;;5.53;;
19778;SDS011;10049;59.306;18.090;2022-12-29T02:09:54;86.67;;;4.23;;
19778;SDS011;10049;59.306;18.090;2022-12-29T02:12:24;48.72;;;2.95;;
19778;SDS011;10049;59.306;18.090;2022-12-29T02:14:53;25.50;;;2.88;;
19778;SDS011;10049;59.306;18.090;2022-12-29T02:17:25;1.38;;;0.70;;
19778;SDS011;10049;59.306;18.090;2022-12-29T02:22:42;223.60;;;10.17;;
19778;SDS011;10049;59.306;18.090;2022-12-29T02:25:29;6.30;;;0.97;;
19778;SDS011;10049;59.306;18.090;2022-12-29T02:30:55;3.03;;;0.90;;
19778;SDS011;10049;59.306;18.090;2022-12-29T02:33:30;2.73;;;0.80;;
19778;SDS011;10049;59.306;18.090;2022-12-29T02:36:04;5.18;;;0.93;;
19778;SDS011;10049;59.306;18.090;2022-12-29T02:38:38;2.38;;;0.95;;
19778;SDS011;10049;59.306;18.090;2022-12-29T02:41:12;4.13;;;1.10;;
19778;SDS011;10049;59.306;18.090;2022-12-29T02:43:45;2.92;;;1.25;;
19778;SDS011;10049;59.306;18.090;2022-12-29T02:46:17;3.63;;;1.00;;
19778;SDS011;10049;59.306;18.090;2022-12-29T02:48:47;3.33;;;1.33;;
19778;SDS011;10049;59.306;18.090;2022-12-29T02:51:20;2.10;;;1.10;;
19778;SDS011;10049;59.306;18.090;2022-12-29T02:53:48;2.07;;;0.97;;
19778;SDS011;10049;59.306;18.090;2022-12-29T02:56:33;2.00;;;1.10;;
19778;SDS011;10049;59.306;18.090;2022-12-29T02:59:00;1.63;;;1.13;;
19778;SDS011;10049;59.306;18.090;2022-12-29T03:01:33;1.63;;;1.10;;
19778;SDS011;10049;59.306;18.090;2022-12-29T03:04:10;2.57;;;1.30;;
19778;SDS011;10049;59.306;18.090;2022-12-29T03:06:44;3.33;;;1.17;;
19778;SDS011;10049;59.306;18.090;2022-12-29T03:09:19;1.30;;;1.00;;
19778;SDS011;10049;59.306;18.090;2022-12-29T03:11:50;1.87;;;1.07;;
19778;SDS011;10049;59.306;18.090;2022-12-29T03:14:37;2.63;;;1.40;;
19778;SDS011;10049;59.306;18.090;2022-12-29T03:17:26;4.95;;;1.52;;
19778;SDS011;10049;59.306;18.090;2022-12-29T03:19:57;4.50;;;1.50;;
19778;SDS011;10049;59.306;18.090;2022-12-29T03:22:27;3.33;;;1.52;;
19778;SDS011;10049;59.306;18.090;2022-12-29T03:24:57;4.57;;;1.88;;
19778;SDS011;10049;59.306;18.090;2022-12-29T03:27:27;4.15;;;1.88;;
19778;SDS011;10049;59.306;18.090;2022-12-29T03:29:57;2.83;;;1.38;;
19778;SDS011;10049;59.306;18.090;2022-12-29T03:32:29;3.90;;;1.60;;
19778;SDS011;10049;59.306;18.090;2022-12-29T03:34:58;3.25;;;1.63;;
19778;SDS011;10049;59.306;18.090;2022-12-29T03:37:27;2.42;;;1.48;;
19778;SDS011;10049;59.306;18.090;2022-12-29T03:39:56;2.95;;;1.60;;
19778;SDS011;10049;59.306;18.090;2022-12-29T03:42:25;2.08;;;1.63;;
19778;SDS011;10049;59.306;18.090;2022-12-29T03:44:54;4.68;;;1.52;;
19778;SDS011;10049;59.306;18.090;2022-12-29T03:47:22;3.33;;;1.55;;
19778;SDS011;10049;59.306;18.090;2022-12-29T03:49:52;2.85;;;1.52;;
19778;SDS011;10049;59.306;18.090;2022-12-29T03:52:22;2.88;;;1.60;;
19778;SDS011;10049;59.306;18.090;2022-12-29T03:54:50;1.70;;;1.40;;
19778;SDS011;10049;59.306;18.090;2022-12-29T03:57:18;1.55;;;1.17;;
19778;SDS011;10049;59.306;18.090;2022-12-29T03:59:45;5.88;;;1.60;;
19778;SDS011;10049;59.306;18.090;2022-12-29T04:02:14;2.88;;;1.52;;
19778;SDS011;10049;59.306;18.090;2022-12-29T04:04:41;2.72;;;1.42;;
19778;SDS011;10049;59.306;18.090;2022-12-29T04:07:10;1.65;;;1.15;;
19778;SDS011;10049;59.306;18.090;2022-12-29T04:09:38;2.33;;;1.48;;
19778;SDS011;10049;59.306;18.090;2022-12-29T04:12:05;2.13;;;1.38;;
19778;SDS011;10049;59.306;18.090;2022-12-29T04:14:34;2.67;;;1.20;;
19778;SDS011;10049;59.306;18.090;2022-12-29T04:17:01;4.20;;;1.40;;
19778;SDS011;10049;59.306;18.090;2022-12-29T04:19:29;2.83;;;1.20;;
19778;SDS011;10049;59.306;18.090;2022-12-29T04:21:56;1.10;;;1.00;;
19778;SDS011;10049;59.306;18.090;2022-12-29T04:24:25;0.98;;;0.80;;
19778;SDS011;10049;59.306;18.090;2022-12-29T04:26:53;2.30;;;1.25;;
19778;SDS011;10049;59.306;18.090;2022-12-29T04:29:21;2.13;;;1.55;;
19778;SDS011;10049;59.306;18.090;2022-12-29T04:31:48;2.08;;;1.45;;
19778;SDS011;10049;59.306;18.090;2022-12-29T04:34:16;1.88;;;1.17;;
19778;SDS011;10049;59.306;18.090;2022-12-29T04:36:46;3.38;;;1.60;;
19778;SDS011;10049;59.306;18.090;2022-12-29T04:39:13;2.40;;;1.60;;
19778;SDS011;10049;59.306;18.090;2022-12-29T04:41:44;2.97;;;1.20;;
19778;SDS011;10049;59.306;18.090;2022-12-29T04:44:13;2.88;;;1.70;;
19778;SDS011;10049;59.306;18.090;2022-12-29T04:46:40;2.75;;;1.60;;
19778;SDS011;10049;59.306;18.090;2022-12-29T04:49:08;1.67;;;1.15;;
19778;SDS011;10049;59.306;18.090;2022-12-29T04:51:36;2.70;;;1.70;;
19778;SDS011;10049;59.306;18.090;2022-12-29T04:54:03;1.50;;;1.30;;
19778;SDS011;10049;59.306;18.090;2022-12-29T04:56:31;1.88;;;1.33;;
19778;SDS011;10049;59.306;18.090;2022-12-29T04:59:00;3.63;;;1.70;;
19778;SDS011;10049;59.306;18.090;2022-12-29T05:01:28;1.63;;;1.35;;
19778;SDS011;10049;59.306;18.090;2022-12-29T05:03:55;1.20;;;0.93;;
19778;SDS011;10049;59.306;18.090;2022-12-29T05:06:23;1.17;;;0.98;;
19778;SDS011;10049;59.306;18.090;2022-12-29T05:08:50;2.58;;;1.20;;
19778;SDS011;10049;59.306;18.090;2022-12-29T05:11:18;2.08;;;1.27;;
19778;SDS011;10049;59.306;18.090;2022-12-29T05:13:45;2.25;;;1.45;;
19778;SDS011;10049;59.306;18.090;2022-12-29T05:16:15;2.28;;;1.30;;
19778;SDS011;10049;59.306;18.090;2022-12-29T05:18:42;2.30;;;1.23;;
19778;SDS011;10049;59.306;18.090;2022-12-29T05:21:10;1.50;;;1.00;;
19778;SDS011;10049;59.306;18.090;2022-12-29T05:23:37;1.33;;;1.20;;
19778;SDS011;10049;59.306;18.090;2022-12-29T05:26:05;2.20;;;1.30;;
19778;SDS011;10049;59.306;18.090;2022-12-29T05:28:33;1.92;;;1.40;;
19778;SDS011;10049;59.306;18.090;2022-12-29T05:31:01;1.20;;;1.10;;
19778;SDS011;10049;59.306;18.090;2022-12-29T05:33:30;1.73;;;1.33;;
19778;SDS011;10049;59.306;18.090;2022-12-29T05:36:03;1.40;;;1.30;;
19778;SDS011;10049;59.306;18.090;2022-12-29T05:38:30;2.22;;;1.30;;
19778;SDS011;10049;59.306;18.090;2022-12-29T05:40:58;3.15;;;1.10;;
19778;SDS011;10049;59.306;18.090;2022-12-29T05:43:27;1.85;;;1.10;;
19778;SDS011;10049;59.306;18.090;2022-12-29T05:45:57;2.00;;;1.20;;
19778;SDS011;10049;59.306;18.090;2022-12-29T05:48:24;2.40;;;1.10;;
19778;SDS011;10049;59.306;18.090;2022-12-29T05:50:55;2.28;;;0.60;;
19778;SDS011;10049;59.306;18.090;2022-12-29T05:53:22;0.50;;;0.50;;
19778;SDS011;10049;59.306;18.090;2022-12-29T05:55:50;0.63;;;0.57;;
19778;SDS011;10049;59.306;18.090;2022-12-29T05:58:18;0.45;;;0.45;;
19778;SDS011;10049;59.306;18.090;2022-12-29T06:00:45;3.90;;;1.00;;
19778;SDS011;10049;59.306;18.090;2022-12-29T06:03:13;2.47;;;1.08;;
19778;SDS011;10049;59.306;18.090;2022-12-29T06:05:40;1.77;;;1.10;;
19778;SDS011;10049;59.306;18.090;2022-12-29T06:08:10;1.60;;;1.02;;
19778;SDS011;10049;59.306;18.090;2022-12-29T06:10:37;0.90;;;0.73;;
19778;SDS011;10049;59.306;18.090;2022-12-29T06:13:05;1.10;;;1.00;;
19778;SDS011;10049;59.306;18.090;2022-12-29T06:15:32;1.23;;;0.88;;
19778;SDS011;10049;59.306;18.090;2022-12-29T06:18:00;0.73;;;0.73;;
19778;SDS011;10049;59.306;18.090;2022-12-29T06:20:28;1.02;;;0.73;;
19778;SDS011;10049;59.306;18.090;2022-12-29T06:22:56;1.55;;;0.85;;
19778;SDS011;10049;59.306;18.090;2022-12-29T06:25:26;0.85;;;0.82;;
19778;SDS011;10049;59.306;18.090;2022-12-29T06:27:56;2.30;;;1.25;;
19778;SDS011;10049;59.306;18.090;2022-12-29T06:30:23;2.28;;;1.25;;
19778;SDS011;10049;59.306;18.090;2022-12-29T06:32:51;1.45;;;0.90;;
19778;SDS011;10049;59.306;18.090;2022-12-29T06:35:19;0.35;;;0.35;;
19778;SDS011;10049;59.306;18.090;2022-12-29T06:37:47;3.13;;;1.17;;
19778;SDS011;10049;59.306;18.090;2022-12-29T06:40:17;0.95;;;0.63;;
19778;SDS011;10049;59.306;18.090;2022-12-29T06:42:48;0.95;;;0.80;;
19778;SDS011;10049;59.306;18.090;2022-12-29T06:45:15;4.90;;;1.42;;
19778;SDS011;10049;59.306;18.090;2022-12-29T06:47:44;2.47;;;1.42;;
19778;SDS011;10049;59.306;18.090;2022-12-29T06:50:11;4.40;;;1.60;;
19778;SDS011;10049;59.306;18.090;2022-12-29T06:52:42;6.20;;;1.75;;
19778;SDS011;10049;59.306;18.090;2022-12-29T06:55:11;6.25;;;1.73;;
19778;SDS011;10049;59.306;18.090;2022-12-29T06:57:40;4.00;;;1.90;;
19778;SDS011;10049;59.306;18.090;2022-12-29T07:00:11;3.85;;;1.55;;
19778;SDS011;10049;59.306;18.090;2022-12-29T07:02:46;1.08;;;0.63;;
19778;SDS011;10049;59.306;18.090;2022-12-29T07:05:14;4.43;;;2.20;;
19778;SDS011;10049;59.306;18.090;2022-12-29T07:07:41;4.85;;;2.30;;
19778;SDS011;10049;59.306;18.090;2022-12-29T07:10:10;9.35;;;2.00;;
19778;SDS011;10049;59.306;18.090;2022-12-29T07:12:38;5.13;;;1.90;;
19778;SDS011;10049;59.306;18.090;2022-12-29T07:15:06;5.40;;;2.50;;
19778;SDS011;10049;59.306;18.090;2022-12-29T07:17:35;10.45;;;2.53;;
19778;SDS011;10049;59.306;18.090;2022-12-29T07:20:03;7.70;;;2.40;;
19778;SDS011;10049;59.306;18.090;2022-12-29T07:22:31;3.88;;;2.20;;
19778;SDS011;10049;59.306;18.090;2022-12-29T07:24:59;9.75;;;1.77;;
19778;SDS011;10049;59.306;18.090;2022-12-29T07:27:28;3.83;;;1.50;;
19778;SDS011;10049;59.306;18.090;2022-12-29T07:29:56;4.85;;;2.10;;
19778;SDS011;10049;59.306;18.090;2022-12-29T07:32:23;6.78;;;2.30;;
19778;SDS011;10049;59.306;18.090;2022-12-29T07:34:52;7.18;;;2.42;;
19778;SDS011;10049;59.306;18.090;2022-12-29T07:37:20;8.00;;;2.22;;
19778;SDS011;10049;59.306;18.090;2022-12-29T07:39:48;5.18;;;1.85;;
19778;SDS011;10049;59.306;18.090;2022-12-29T07:42:15;2.80;;;1.50;;
19778;SDS011;10049;59.306;18.090;2022-12-29T07:44:44;4.15;;;1.80;;
19778;SDS011;10049;59.306;18.090;2022-12-29T07:47:20;5.07;;;1.85;;
19778;SDS011;10049;59.306;18.090;2022-12-29T07:49:48;4.38;;;2.03;;
19778;SDS011;10049;59.306;18.090;2022-12-29T07:52:17;5.97;;;1.65;;
19778;SDS011;10049;59.306;18.090;2022-12-29T07:54:44;10.10;;;2.30;;
19778;SDS011;10049;59.306;18.090;2022-12-29T07:57:12;5.68;;;2.47;;
19778;SDS011;10049;59.306;18.090;2022-12-29T07:59:39;2.38;;;1.52;;
19778;SDS011;10049;59.306;18.090;2022-12-29T08:02:08;3.53;;;1.45;;
19778;SDS011;10049;59.306;18.090;2022-12-29T08:04:36;5.53;;;1.38;;
19778;SDS011;10049;59.306;18.090;2022-12-29T08:07:04;3.58;;;1.50;;
19778;SDS011;10049;59.306;18.090;2022-12-29T08:09:33;3.17;;;1.50;;
19778;SDS011;10049;59.306;18.090;2022-12-29T08:12:00;4.95;;;1.88;;
19778;SDS011;10049;59.306;18.090;2022-12-29T08:14:28;5.32;;;1.40;;
19778;SDS011;10049;59.306;18.090;2022-12-29T08:16:55;5.03;;;1.52;;
19778;SDS011;10049;59.306;18.090;2022-12-29T08:19:23;1.55;;;1.15;;
19778;SDS011;10049;59.306;18.090;2022-12-29T08:21:51;2.97;;;0.98;;
19778;SDS011;10049;59.306;18.090;2022-12-29T08:24:21;2.92;;;1.30;;
19778;SDS011;10049;59.306;18.090;2022-12-29T08:26:51;2.33;;;1.33;;
19778;SDS011;10049;59.306;18.090;2022-12-29T08:29:19;2.35;;;0.90;;
19778;SDS011;10049;59.306;18.090;2022-12-29T08:31:47;0.47;;;0.43;;
19778;SDS011;10049;59.306;18.090;2022-12-29T08:34:15;1.48;;;0.93;;
19778;SDS011;10049;59.306;18.090;2022-12-29T08:36:43;2.30;;;1.20;;
19778;SDS011;10049;59.306;18.090;2022-12-29T08:39:11;1.30;;;0.88;;
19778;SDS011;10049;59.306;18.090;2022-12-29T08:41:38;1.98;;;1.30;;
19778;SDS011;10049;59.306;18.090;2022-12-29T08:44:08;2.10;;;1.30;;
19778;SDS011;10049;59.306;18.090;2022-12-29T08:46:35;1.58;;;0.98;;
19778;SDS011;10049;59.306;18.090;2022-12-29T08:49:03;2.72;;;1.50;;
19778;SDS011;10049;59.306;18.090;2022-12-29T08:51:31;1.70;;;1.15;;
19778;SDS011;10049;59.306;18.090;2022-12-29T08:53:58;3.42;;;1.35;;
19778;SDS011;10049;59.306;18.090;2022-12-29T08:56:27;4.03;;;1.60;;
19778;SDS011;10049;59.306;18.090;2022-12-29T08:58:55;3.90;;;1.52;;
19778;SDS011;10049;59.306;18.090;2022-12-29T09:01:24;2.95;;;1.10;;
19778;SDS011;10049;59.306;18.090;2022-12-29T09:03:52;2.20;;;1.20;;
19778;SDS011;10049;59.306;18.090;2022-12-29T09:06:20;1.80;;;1.10;;
19778;SDS011;10049;59.306;18.090;2022-12-29T09:08:48;1.10;;;1.00;;
19778;SDS011;10049;59.306;18.090;2022-12-29T09:11:17;2.55;;;0.90;;
19778;SDS011;10049;59.306;18.090;2022-12-29T09:13:45;0.52;;;0.52;;
19778;SDS011;10049;59.306;18.090;2022-12-29T09:16:15;0.85;;;0.57;;
19778;SDS011;10049;59.306;18.090;2022-12-29T09:18:44;0.70;;;0.40;;
19778;SDS011;10049;59.306;18.090;2022-12-29T09:21:12;1.23;;;0.77;;
19778;SDS011;10049;59.306;18.090;2022-12-29T09:23:40;0.68;;;0.68;;
19778;SDS011;10049;59.306;18.090;2022-12-29T09:26:07;0.75;;;0.55;;
19778;SDS011;10049;59.306;18.090;2022-12-29T09:28:35;0.45;;;0.45;;
19778;SDS011;10049;59.306;18.090;2022-12-29T09:31:02;1.10;;;0.50;;
19778;SDS011;10049;59.306;18.090;2022-12-29T09:33:30;0.47;;;0.47;;
19778;SDS011;10049;59.306;18.090;2022-12-29T09:36:01;0.40;;;0.40;;
19778;SDS011;10049;59.306;18.090;2022-12-29T09:38:28;1.17;;;0.50;;
19778;SDS011;10049;59.306;18.090;2022-12-29T09:40:57;0.40;;;0.40;;
19778;SDS011;10049;59.306;18.090;2022-12-29T09:43:35;0.93;;;0.50;;
19778;SDS011;10049;59.306;18.090;2022-12-29T09:46:13;1.63;;;0.80;;
19778;SDS011;10049;59.306;18.090;2022-12-29T09:48:47;0.50;;;0.50;;
19778;SDS011;10049;59.306;18.090;2022-12-29T09:51:17;1.83;;;0.80;;
19778;SDS011;10049;59.306;18.090;2022-12-29T09:53:51;1.10;;;0.70;;
19778;SDS011;10049;59.306;18.090;2022-12-29T09:56:21;1.67;;;0.75;;
19778;SDS011;10049;59.306;18.090;2022-12-29T09:58:50;0.98;;;0.80;;
19778;SDS011;10049;59.306;18.090;2022-12-29T10:01:21;2.03;;;0.63;;
19778;SDS011;10049;59.306;18.090;2022-12-29T10:03:52;2.90;;;0.98;;
19778;SDS011;10049;59.306;18.090;2022-12-29T10:06:24;4.07;;;0.98;;
19778;SDS011;10049;59.306;18.090;2022-12-29T10:08:55;2.78;;;1.20;;
19778;SDS011;10049;59.306;18.090;2022-12-29T10:11:29;1.60;;;1.00;;
19778;SDS011;10049;59.306;18.090;2022-12-29T10:14:08;1.77;;;1.25;;
19778;SDS011;10049;59.306;18.090;2022-12-29T10:16:38;2.90;;;1.13;;
19778;SDS011;10049;59.306;18.090;2022-12-29T10:19:16;1.20;;;0.88;;
19778;SDS011;10049;59.306;18.090;2022-12-29T10:21:52;2.65;;;1.10;;
19778;SDS011;10049;59.306;18.090;2022-12-29T10:24:25;3.15;;;0.93;;
19778;SDS011;10049;59.306;18.090;2022-12-29T10:26:54;2.45;;;0.95;;
19778;SDS011;10049;59.306;18.090;2022-12-29T10:29:24;2.35;;;0.90;;
19778;SDS011;10049;59.306;18.090;2022-12-29T10:31:54;8.18;;;1.00;;
19778;SDS011;10049;59.306;18.090;2022-12-29T10:34:24;0.98;;;0.80;;
19778;SDS011;10049;59.306;18.090;2022-12-29T10:36:55;0.95;;;0.82;;
19778;SDS011;10049;59.306;18.090;2022-12-29T10:39:28;1.48;;;0.95;;
19778;SDS011;10049;59.306;18.090;2022-12-29T10:42:01;2.67;;;1.00;;
19778;SDS011;10049;59.306;18.090;2022-12-29T10:44:31;1.48;;;0.50;;
19778;SDS011;10049;59.306;18.090;2022-12-29T10:47:00;0.88;;;0.88;;
19778;SDS011;10049;59.306;18.090;2022-12-29T10:49:30;2.33;;;0.60;;
19778;SDS011;10049;59.306;18.090;2022-12-29T10:52:00;0.60;;;0.60;;
19778;SDS011;10049;59.306;18.090;2022-12-29T10:54:29;0.70;;;0.60;;
19778;SDS011;10049;59.306;18.090;2022-12-29T10:57:01;0.63;;;0.63;;
19778;SDS011;10049;59.306;18.090;2022-12-29T10:59:30;1.08;;;0.88;;
19778;SDS011;10049;59.306;18.090;2022-12-29T11:01:59;1.65;;;0.80;;
19778;SDS011;10049;59.306;18.090;2022-12-29T11:04:35;0.75;;;0.57;;
19778;SDS011;10049;59.306;18.090;2022-12-29T11:07:10;0.88;;;0.60;;
19778;SDS011;10049;59.306;18.090;2022-12-29T11:09:38;0.60;;;0.60;;
19778;SDS011;10049;59.306;18.090;2022-12-29T11:12:18;0.60;;;0.60;;
19778;SDS011;10049;59.306;18.090;2022-12-29T11:14:46;0.50;;;0.50;;
19778;SDS011;10049;59.306;18.090;2022-12-29T11:17:14;0.57;;;0.57;;
19778;SDS011;10049;59.306;18.090;2022-12-29T11:19:42;0.50;;;0.43;;
19778;SDS011;10049;59.306;18.090;2022-12-29T11:22:21;0.35;;;0.35;;
19778;SDS011;10049;59.306;18.090;2022-12-29T11:24:49;1.13;;;0.50;;
19778;SDS011;10049;59.306;18.090;2022-12-29T11:27:18;0.43;;;0.35;;
19778;SDS011;10049;59.306;18.090;2022-12-29T11:29:48;0.63;;;0.40;;
19778;SDS011;10049;59.306;18.090;2022-12-29T11:32:17;0.40;;;0.40;;
19778;SDS011;10049;59.306;18.090;2022-12-29T11:34:45;0.43;;;0.40;;
19778;SDS011;10049;59.306;18.090;2022-12-29T11:37:16;0.40;;;0.40;;
19778;SDS011;10049;59.306;18.090;2022-12-29T11:39:46;0.60;;;0.50;;
19778;SDS011;10049;59.306;18.090;2022-12-29T11:42:16;1.90;;;0.60;;
19778;SDS011;10049;59.306;18.090;2022-12-29T11:44:45;0.52;;;0.52;;
19778;SDS011;10049;59.306;18.090;2022-12-29T11:47:19;0.80;;;0.52;;
19778;SDS011;10049;59.306;18.090;2022-12-29T11:49:51;0.43;;;0.43;;
19778;SDS011;10049;59.306;18.090;2022-12-29T11:52:29;0.60;;;0.60;;
19778;SDS011;10049;59.306;18.090;2022-12-29T11:55:00;0.63;;;0.63;;
19778;SDS011;10049;59.306;18.090;2022-12-29T11:57:28;3.53;;;0.70;;
19778;SDS011;10049;59.306;18.090;2022-12-29T11:59:56;1.38;;;0.63;;
19778;SDS011;10049;59.306;18.090;2022-12-29T12:05:22;1.38;;;0.68;;
19778;SDS011;10049;59.306;18.090;2022-12-29T12:07:56;0.50;;;0.50;;
19778;SDS011;10049;59.306;18.090;2022-12-29T12:10:27;1.48;;;0.70;;
19778;SDS011;10049;59.306;18.090;2022-12-29T12:12:58;0.63;;;0.50;;
19778;SDS011;10049;59.306;18.090;2022-12-29T12:15:30;0.38;;;0.38;;
19778;SDS011;10049;59.306;18.090;2022-12-29T12:18:02;0.75;;;0.50;;
19778;SDS011;10049;59.306;18.090;2022-12-29T12:20:34;0.70;;;0.70;;
19778;SDS011;10049;59.306;18.090;2022-12-29T12:23:10;0.50;;;0.50;;
19778;SDS011;10049;59.306;18.090;2022-12-29T12:25:43;0.50;;;0.50;;
19778;SDS011;10049;59.306;18.090;2022-12-29T12:28:13;0.50;;;0.50;;
19778;SDS011;10049;59.306;18.090;2022-12-29T12:30:45;0.50;;;0.50;;
19778;SDS011;10049;59.306;18.090;2022-12-29T12:33:17;0.35;;;0.35;;
19778;SDS011;10049;59.306;18.090;2022-12-29T12:35:51;0.50;;;0.50;;
19778;SDS011;10049;59.306;18.090;2022-12-29T12:38:25;0.45;;;0.45;;
19778;SDS011;10049;59.306;18.090;2022-12-29T12:40:57;0.52;;;0.52;;
19778;SDS011;10049;59.306;18.090;2022-12-29T12:43:33;0.50;;;0.50;;
19778;SDS011;10049;59.306;18.090;2022-12-29T12:48:59;0.73;;;0.70;;
19778;SDS011;10049;59.306;18.090;2022-12-29T12:51:34;0.40;;;0.40;;
19778;SDS011;10049;59.306;18.090;2022-12-29T12:54:10;0.93;;;0.50;;
19778;SDS011;10049;59.306;18.090;2022-12-29T12:56:44;2.38;;;0.60;;
19778;SDS011;10049;59.306;18.090;2022-12-29T12:59:15;2.25;;;0.60;;
19778;SDS011;10049;59.306;18.090;2022-12-29T13:01:46;0.80;;;0.63;;
19778;SDS011;10049;59.306;18.090;2022-12-29T13:04:26;1.05;;;0.70;;
19778;SDS011;10049;59.306;18.090;2022-12-29T13:07:03;0.70;;;0.70;;
19778;SDS011;10049;59.306;18.090;2022-12-29T13:09:41;0.80;;;0.80;;
19778;SDS011;10049;59.306;18.090;2022-12-29T13:12:14;0.80;;;0.80;;
19778;SDS011;10049;59.306;18.090;2022-12-29T13:14:47;1.10;;;0.80;;
19778;SDS011;10049;59.306;18.090;2022-12-29T13:17:22;0.85;;;0.82;;
19778;SDS011;10049;59.306;18.090;2022-12-29T13:19:53;1.00;;;0.85;;
19778;SDS011;10049;59.306;18.090;2022-12-29T13:22:25;0.77;;;0.77;;
19778;SDS011;10049;59.306;18.090;2022-12-29T13:24:59;1.13;;;0.73;;
19778;SDS011;10049;59.306;18.090;2022-12-29T13:27:31;0.80;;;0.80;;
19778;SDS011;10049;59.306;18.090;2022-12-29T13:30:01;0.80;;;0.73;;
19778;SDS011;10049;59.306;18.090;2022-12-29T13:32:33;0.82;;;0.80;;
19778;SDS011;10049;59.306;18.090;2022-12-29T13:35:08;0.80;;;0.80;;
19778;SDS011;10049;59.306;18.090;2022-12-29T13:37:41;1.13;;;0.70;;
19778;SDS011;10049;59.306;18.090;2022-12-29T13:40:15;1.95;;;0.80;;
19778;SDS011;10049;59.306;18.090;2022-12-29T13:42:43;2.60;;;0.73;;
19778;SDS011;10049;59.306;18.090;2022-12-29T13:45:13;1.25;;;0.70;;
19778;SDS011;10049;59.306;18.090;2022-12-29T13:47:42;0.60;;;0.60;;
19778;SDS011;10049;59.306;18.090;2022-12-29T13:50:12;0.57;;;0.50;;
19778;SDS011;10049;59.306;18.090;2022-12-29T13:52:43;0.60;;;0.60;;
19778;SDS011;10049;59.306;18.090;2022-12-29T13:55:20;0.70;;;0.65;;
19778;SDS011;10049;59.306;18.090;2022-12-29T13:57:49;0.95;;;0.50;;
19778;SDS011;10049;59.306;18.090;2022-12-29T14:00:19;0.60;;;0.60;;
19778;SDS011;10049;59.306;18.090;2022-12-29T14:03:01;0.50;;;0.50;;
19778;SDS011;10049;59.306;18.090;2022-12-29T14:05:37;1.45;;;0.60;;
19778;SDS011;10049;59.306;18.090;2022-12-29T14:08:04;0.40;;;0.40;;
19778;SDS011;10049;59.306;18.090;2022-12-29T14:10:35;1.15;;;0.60;;
19778;SDS011;10049;59.306;18.090;2022-12-29T14:13:03;0.60;;;0.60;;
19778;SDS011;10049;59.306;18.090;2022-12-29T14:15:32;2.70;;;0.50;;
19778;SDS011;10049;59.306;18.090;2022-12-29T14:18:11;0.70;;;0.70;;
19778;SDS011;10049;59.306;18.090;2022-12-29T14:20:39;0.50;;;0.50;;
19778;SDS011;10049;59.306;18.090;2022-12-29T14:23:24;0.60;;;0.60;;
19778;SDS011;10049;59.306;18.090;2022-12-29T14:26:09;0.73;;;0.52;;
19778;SDS011;10049;59.306;18.090;2022-12-29T14:28:37;1.20;;;0.68;;
19778;SDS011;10049;59.306;18.090;2022-12-29T14:31:18;0.43;;;0.43;;
19778;SDS011;10049;59.306;18.090;2022-12-29T14:36:39;1.33;;;0.70;;
19778;SDS011;10049;59.306;18.090;2022-12-29T14:39:29;1.58;;;0.80;;
19778;SDS011;10049;59.306;18.090;2022-12-29T14:41:59;1.33;;;0.80;;
19778;SDS011;10049;59.306;18.090;2022-12-29T14:44:27;0.80;;;0.70;;
19778;SDS011;10049;59.306;18.090;2022-12-29T14:46:55;0.82;;;0.80;;
19778;SDS011;10049;59.306;18.090;2022-12-29T14:49:24;1.15;;;1.05;;
19778;SDS011;10049;59.306;18.090;2022-12-29T14:51:54;3.05;;;1.00;;
19778;SDS011;10049;59.306;18.090;2022-12-29T14:57:21;3.15;;;1.20;;
19778;SDS011;10049;59.306;18.090;2022-12-29T14:59:52;1.98;;;1.20;;
19778;SDS011;10049;59.306;18.090;2022-12-29T15:02:22;2.15;;;1.20;;
19778;SDS011;10049;59.306;18.090;2022-12-29T15:04:51;2.80;;;1.90;;
19778;SDS011;10049;59.306;18.090;2022-12-29T15:07:21;1.60;;;1.30;;